KGNT/GNT METAR and TAF weather

Enter ICAO airport designator
Station Type Date Time Source
KGNT METAR 2019/10/23 12:35 UTC NOAA

KGNT 231235Z AUTO 30007G16KT 10SM CLR M02/M08 A3021 RMK AO2 T10241078


Station Type Date Time Source
KGNT Decoded METAR 2019/10/23 12:35 UTC NOAA

GRANTS-MILAN MUNICIPAL AIRPORT , NM, United States (KGNT) 35-10N 107-54W 1987M
Oct 23, 2019 - 08:35 AM EDT / 2019.10.23 1235 UTC
Wind: from the WNW (300 degrees) at 8 MPH (7 KT) gusting to 18 MPH (16 KT):0
Visibility: 10 mile(s):0
Sky conditions: clear
Temperature: 27.7 F (-2.4 C)
Windchill: 19 F (-7 C):1
Dew Point: 18.0 F (-7.8 C)
Relative Humidity: 66%
Pressure (altimeter): 30.21 in. Hg (1023 hPa)
ob: KGNT 231235Z AUTO 30007G16KT 10SM CLR M02/M08 A3021 RMK AO2 T10241078
cycle: 12

Station Type Date Time Source
KGNT TAF UTC NOAA

Error!

Example: see airport list